sensor_id;sensor_type;location;lat;lon;timestamp;P1;durP1;ratioP1;P2;durP2;ratioP2
1479;SDS011;732;51.698;4.886;2024-01-27T00:00:03;24.40;;;5.00;;
1479;SDS011;732;51.698;4.886;2024-01-27T00:02:34;21.80;;;5.10;;
1479;SDS011;732;51.698;4.886;2024-01-27T00:05:02;25.37;;;5.73;;
1479;SDS011;732;51.698;4.886;2024-01-27T00:07:32;26.20;;;6.20;;
1479;SDS011;732;51.698;4.886;2024-01-27T00:10:01;20.43;;;5.60;;
1479;SDS011;732;51.698;4.886;2024-01-27T00:12:30;23.40;;;5.93;;
1479;SDS011;732;51.698;4.886;2024-01-27T00:15:00;23.40;;;4.80;;
1479;SDS011;732;51.698;4.886;2024-01-27T00:17:29;18.57;;;5.30;;
1479;SDS011;732;51.698;4.886;2024-01-27T00:19:57;28.40;;;6.63;;
1479;SDS011;732;51.698;4.886;2024-01-27T00:22:26;19.33;;;4.87;;
1479;SDS011;732;51.698;4.886;2024-01-27T00:24:54;20.67;;;5.33;;
1479;SDS011;732;51.698;4.886;2024-01-27T00:27:23;18.30;;;4.70;;
1479;SDS011;732;51.698;4.886;2024-01-27T00:29:51;27.63;;;6.60;;
1479;SDS011;732;51.698;4.886;2024-01-27T00:32:21;19.43;;;5.87;;
1479;SDS011;732;51.698;4.886;2024-01-27T00:34:50;18.20;;;4.93;;
1479;SDS011;732;51.698;4.886;2024-01-27T00:37:18;17.60;;;4.90;;
1479;SDS011;732;51.698;4.886;2024-01-27T00:39:47;23.70;;;5.00;;
1479;SDS011;732;51.698;4.886;2024-01-27T00:42:16;12.40;;;4.90;;
1479;SDS011;732;51.698;4.886;2024-01-27T00:44:50;25.50;;;6.70;;
1479;SDS011;732;51.698;4.886;2024-01-27T00:47:19;18.07;;;4.90;;
1479;SDS011;732;51.698;4.886;2024-01-27T00:49:49;20.70;;;5.00;;
1479;SDS011;732;51.698;4.886;2024-01-27T00:52:17;18.63;;;4.90;;
1479;SDS011;732;51.698;4.886;2024-01-27T00:54:46;21.03;;;5.30;;
1479;SDS011;732;51.698;4.886;2024-01-27T00:57:15;37.77;;;5.80;;
1479;SDS011;732;51.698;4.886;2024-01-27T00:59:44;30.30;;;6.30;;
1479;SDS011;732;51.698;4.886;2024-01-27T01:02:12;20.70;;;5.30;;
1479;SDS011;732;51.698;4.886;2024-01-27T01:04:41;18.53;;;5.83;;
1479;SDS011;732;51.698;4.886;2024-01-27T01:07:12;22.37;;;7.30;;
1479;SDS011;732;51.698;4.886;2024-01-27T01:09:41;33.83;;;5.80;;
1479;SDS011;732;51.698;4.886;2024-01-27T01:12:09;18.60;;;5.10;;
1479;SDS011;732;51.698;4.886;2024-01-27T01:14:38;14.63;;;5.43;;
1479;SDS011;732;51.698;4.886;2024-01-27T01:17:07;27.77;;;6.13;;
1479;SDS011;732;51.698;4.886;2024-01-27T01:19:36;19.67;;;4.80;;
1479;SDS011;732;51.698;4.886;2024-01-27T01:22:05;28.03;;;6.40;;
1479;SDS011;732;51.698;4.886;2024-01-27T01:24:40;17.60;;;5.90;;
1479;SDS011;732;51.698;4.886;2024-01-27T01:27:08;22.40;;;6.30;;
1479;SDS011;732;51.698;4.886;2024-01-27T01:29:37;22.20;;;6.93;;
1479;SDS011;732;51.698;4.886;2024-01-27T01:32:06;17.80;;;5.80;;
1479;SDS011;732;51.698;4.886;2024-01-27T01:34:35;23.00;;;7.27;;
1479;SDS011;732;51.698;4.886;2024-01-27T01:37:04;19.23;;;6.27;;
1479;SDS011;732;51.698;4.886;2024-01-27T01:39:32;21.70;;;6.67;;
1479;SDS011;732;51.698;4.886;2024-01-27T01:42:02;22.67;;;5.90;;
1479;SDS011;732;51.698;4.886;2024-01-27T01:44:31;20.57;;;7.30;;
1479;SDS011;732;51.698;4.886;2024-01-27T01:47:00;23.13;;;6.80;;
1479;SDS011;732;51.698;4.886;2024-01-27T01:49:30;21.10;;;6.97;;
1479;SDS011;732;51.698;4.886;2024-01-27T01:51:59;24.00;;;7.10;;
1479;SDS011;732;51.698;4.886;2024-01-27T01:54:28;22.87;;;7.23;;
1479;SDS011;732;51.698;4.886;2024-01-27T01:56:58;19.03;;;7.27;;
1479;SDS011;732;51.698;4.886;2024-01-27T01:59:28;32.27;;;8.00;;
1479;SDS011;732;51.698;4.886;2024-01-27T02:01:57;31.47;;;7.90;;
1479;SDS011;732;51.698;4.886;2024-01-27T02:04:25;27.47;;;8.40;;
1479;SDS011;732;51.698;4.886;2024-01-27T02:06:54;22.67;;;8.20;;
1479;SDS011;732;51.698;4.886;2024-01-27T02:09:23;24.00;;;8.43;;
1479;SDS011;732;51.698;4.886;2024-01-27T02:11:51;23.77;;;9.63;;
1479;SDS011;732;51.698;4.886;2024-01-27T02:14:20;29.40;;;10.37;;
1479;SDS011;732;51.698;4.886;2024-01-27T02:16:53;30.33;;;10.80;;
1479;SDS011;732;51.698;4.886;2024-01-27T02:19:21;25.33;;;11.30;;
1479;SDS011;732;51.698;4.886;2024-01-27T02:21:51;37.87;;;11.17;;
1479;SDS011;732;51.698;4.886;2024-01-27T02:24:21;31.77;;;10.77;;
1479;SDS011;732;51.698;4.886;2024-01-27T02:26:49;29.80;;;10.43;;
1479;SDS011;732;51.698;4.886;2024-01-27T02:29:18;31.47;;;12.20;;
1479;SDS011;732;51.698;4.886;2024-01-27T02:31:47;26.97;;;11.03;;
1479;SDS011;732;51.698;4.886;2024-01-27T02:34:15;28.00;;;11.57;;
1479;SDS011;732;51.698;4.886;2024-01-27T02:36:44;28.70;;;11.17;;
1479;SDS011;732;51.698;4.886;2024-01-27T02:39:13;34.07;;;12.93;;
1479;SDS011;732;51.698;4.886;2024-01-27T02:41:42;32.47;;;12.93;;
1479;SDS011;732;51.698;4.886;2024-01-27T02:44:12;33.40;;;12.63;;
1479;SDS011;732;51.698;4.886;2024-01-27T02:46:40;50.83;;;14.23;;
1479;SDS011;732;51.698;4.886;2024-01-27T02:49:11;46.60;;;14.60;;
1479;SDS011;732;51.698;4.886;2024-01-27T02:51:39;30.67;;;14.83;;
1479;SDS011;732;51.698;4.886;2024-01-27T02:54:08;42.90;;;14.77;;
1479;SDS011;732;51.698;4.886;2024-01-27T02:56:36;30.47;;;13.83;;
1479;SDS011;732;51.698;4.886;2024-01-27T02:59:06;35.77;;;16.07;;
1479;SDS011;732;51.698;4.886;2024-01-27T03:01:34;46.87;;;16.10;;
1479;SDS011;732;51.698;4.886;2024-01-27T03:04:03;31.80;;;14.87;;
1479;SDS011;732;51.698;4.886;2024-01-27T03:06:31;40.00;;;17.57;;
1479;SDS011;732;51.698;4.886;2024-01-27T03:09:00;35.83;;;16.27;;
1479;SDS011;732;51.698;4.886;2024-01-27T03:11:29;48.90;;;17.00;;
1479;SDS011;732;51.698;4.886;2024-01-27T03:13:58;37.70;;;16.10;;
1479;SDS011;732;51.698;4.886;2024-01-27T03:16:28;45.57;;;17.13;;
1479;SDS011;732;51.698;4.886;2024-01-27T03:18:56;34.67;;;16.23;;
1479;SDS011;732;51.698;4.886;2024-01-27T03:21:25;35.43;;;15.13;;
1479;SDS011;732;51.698;4.886;2024-01-27T03:23:54;41.40;;;16.97;;
1479;SDS011;732;51.698;4.886;2024-01-27T03:26:23;31.57;;;15.93;;
1479;SDS011;732;51.698;4.886;2024-01-27T03:28:52;35.50;;;14.77;;
1479;SDS011;732;51.698;4.886;2024-01-27T03:31:21;41.90;;;15.67;;
1479;SDS011;732;51.698;4.886;2024-01-27T03:33:51;37.90;;;15.00;;
1479;SDS011;732;51.698;4.886;2024-01-27T03:36:20;39.13;;;14.77;;
1479;SDS011;732;51.698;4.886;2024-01-27T03:38:48;34.70;;;15.30;;
1479;SDS011;732;51.698;4.886;2024-01-27T03:41:17;38.70;;;14.80;;
1479;SDS011;732;51.698;4.886;2024-01-27T03:43:46;39.30;;;15.63;;
1479;SDS011;732;51.698;4.886;2024-01-27T03:46:14;38.00;;;15.77;;
1479;SDS011;732;51.698;4.886;2024-01-27T03:48:43;33.33;;;14.83;;
1479;SDS011;732;51.698;4.886;2024-01-27T03:51:13;32.07;;;14.60;;
1479;SDS011;732;51.698;4.886;2024-01-27T03:53:41;34.03;;;13.30;;
1479;SDS011;732;51.698;4.886;2024-01-27T03:56:11;31.20;;;14.50;;
1479;SDS011;732;51.698;4.886;2024-01-27T03:58:40;30.80;;;13.87;;
1479;SDS011;732;51.698;4.886;2024-01-27T04:01:08;27.70;;;14.13;;
1479;SDS011;732;51.698;4.886;2024-01-27T04:03:37;32.10;;;14.03;;
1479;SDS011;732;51.698;4.886;2024-01-27T04:06:06;36.50;;;13.57;;
1479;SDS011;732;51.698;4.886;2024-01-27T04:08:36;29.93;;;13.97;;
1479;SDS011;732;51.698;4.886;2024-01-27T04:11:04;41.00;;;15.33;;
1479;SDS011;732;51.698;4.886;2024-01-27T04:13:34;35.43;;;14.60;;
1479;SDS011;732;51.698;4.886;2024-01-27T04:16:04;39.90;;;15.13;;
1479;SDS011;732;51.698;4.886;2024-01-27T04:18:33;36.17;;;15.07;;
1479;SDS011;732;51.698;4.886;2024-01-27T04:21:02;25.93;;;13.60;;
1479;SDS011;732;51.698;4.886;2024-01-27T04:23:31;36.30;;;15.67;;
1479;SDS011;732;51.698;4.886;2024-01-27T04:26:01;34.87;;;14.93;;
1479;SDS011;732;51.698;4.886;2024-01-27T04:28:30;36.23;;;15.07;;
1479;SDS011;732;51.698;4.886;2024-01-27T04:30:58;33.17;;;14.40;;
1479;SDS011;732;51.698;4.886;2024-01-27T04:33:27;38.00;;;15.47;;
1479;SDS011;732;51.698;4.886;2024-01-27T04:35:56;35.53;;;15.80;;
1479;SDS011;732;51.698;4.886;2024-01-27T04:38:25;31.40;;;15.20;;
1479;SDS011;732;51.698;4.886;2024-01-27T04:40:54;32.80;;;14.53;;
1479;SDS011;732;51.698;4.886;2024-01-27T04:43:24;40.50;;;15.80;;
1479;SDS011;732;51.698;4.886;2024-01-27T04:45:52;31.20;;;15.47;;
1479;SDS011;732;51.698;4.886;2024-01-27T04:48:21;35.17;;;15.07;;
1479;SDS011;732;51.698;4.886;2024-01-27T04:50:50;30.77;;;15.40;;
1479;SDS011;732;51.698;4.886;2024-01-27T04:53:18;45.40;;;16.40;;
1479;SDS011;732;51.698;4.886;2024-01-27T04:55:47;37.83;;;15.90;;
1479;SDS011;732;51.698;4.886;2024-01-27T04:58:15;44.53;;;16.20;;
1479;SDS011;732;51.698;4.886;2024-01-27T05:00:45;36.90;;;16.50;;
1479;SDS011;732;51.698;4.886;2024-01-27T05:03:14;38.30;;;17.33;;
1479;SDS011;732;51.698;4.886;2024-01-27T05:05:43;36.43;;;15.77;;
1479;SDS011;732;51.698;4.886;2024-01-27T05:08:12;32.37;;;15.13;;
1479;SDS011;732;51.698;4.886;2024-01-27T05:10:41;31.80;;;16.33;;
1479;SDS011;732;51.698;4.886;2024-01-27T05:13:09;34.30;;;14.93;;
1479;SDS011;732;51.698;4.886;2024-01-27T05:15:38;32.33;;;16.80;;
1479;SDS011;732;51.698;4.886;2024-01-27T05:18:08;35.13;;;16.53;;
1479;SDS011;732;51.698;4.886;2024-01-27T05:20:36;38.00;;;16.80;;
1479;SDS011;732;51.698;4.886;2024-01-27T05:23:05;33.80;;;17.70;;
1479;SDS011;732;51.698;4.886;2024-01-27T05:25:34;32.73;;;16.70;;
1479;SDS011;732;51.698;4.886;2024-01-27T05:28:02;31.20;;;16.00;;
1479;SDS011;732;51.698;4.886;2024-01-27T05:30:32;30.23;;;14.90;;
1479;SDS011;732;51.698;4.886;2024-01-27T05:33:00;34.67;;;15.80;;
1479;SDS011;732;51.698;4.886;2024-01-27T05:35:30;42.13;;;16.70;;
1479;SDS011;732;51.698;4.886;2024-01-27T05:37:59;32.93;;;16.40;;
1479;SDS011;732;51.698;4.886;2024-01-27T05:40:28;38.20;;;17.60;;
1479;SDS011;732;51.698;4.886;2024-01-27T05:42:57;35.10;;;17.13;;
1479;SDS011;732;51.698;4.886;2024-01-27T05:45:26;43.10;;;17.23;;
1479;SDS011;732;51.698;4.886;2024-01-27T05:47:55;35.30;;;17.43;;
1479;SDS011;732;51.698;4.886;2024-01-27T05:50:24;31.60;;;17.47;;
1479;SDS011;732;51.698;4.886;2024-01-27T05:52:55;42.87;;;18.27;;
1479;SDS011;732;51.698;4.886;2024-01-27T05:55:23;43.27;;;18.40;;
1479;SDS011;732;51.698;4.886;2024-01-27T05:57:52;38.20;;;17.77;;
1479;SDS011;732;51.698;4.886;2024-01-27T06:00:23;37.90;;;17.13;;
1479;SDS011;732;51.698;4.886;2024-01-27T06:02:51;33.57;;;18.17;;
1479;SDS011;732;51.698;4.886;2024-01-27T06:05:21;38.43;;;18.33;;
1479;SDS011;732;51.698;4.886;2024-01-27T06:07:49;40.47;;;18.10;;
1479;SDS011;732;51.698;4.886;2024-01-27T06:10:19;31.93;;;18.23;;
1479;SDS011;732;51.698;4.886;2024-01-27T06:12:49;46.40;;;20.60;;
1479;SDS011;732;51.698;4.886;2024-01-27T06:15:18;47.70;;;19.43;;
1479;SDS011;732;51.698;4.886;2024-01-27T06:17:47;39.90;;;19.53;;
1479;SDS011;732;51.698;4.886;2024-01-27T06:20:15;47.70;;;21.20;;
1479;SDS011;732;51.698;4.886;2024-01-27T06:22:45;31.23;;;18.37;;
1479;SDS011;732;51.698;4.886;2024-01-27T06:25:14;52.37;;;20.90;;
1479;SDS011;732;51.698;4.886;2024-01-27T06:27:44;41.30;;;20.03;;
1479;SDS011;732;51.698;4.886;2024-01-27T06:30:13;42.37;;;19.40;;
1479;SDS011;732;51.698;4.886;2024-01-27T06:32:43;52.93;;;22.80;;
1479;SDS011;732;51.698;4.886;2024-01-27T06:35:11;35.43;;;20.63;;
1479;SDS011;732;51.698;4.886;2024-01-27T06:37:40;46.53;;;21.07;;
1479;SDS011;732;51.698;4.886;2024-01-27T06:40:08;61.27;;;21.13;;
1479;SDS011;732;51.698;4.886;2024-01-27T06:42:38;41.00;;;21.30;;
1479;SDS011;732;51.698;4.886;2024-01-27T06:45:08;39.27;;;20.00;;
1479;SDS011;732;51.698;4.886;2024-01-27T06:47:37;50.57;;;21.20;;
1479;SDS011;732;51.698;4.886;2024-01-27T06:50:07;41.13;;;22.33;;
1479;SDS011;732;51.698;4.886;2024-01-27T06:52:37;42.57;;;20.90;;
1479;SDS011;732;51.698;4.886;2024-01-27T06:55:06;45.23;;;21.97;;
1479;SDS011;732;51.698;4.886;2024-01-27T06:57:37;43.07;;;21.77;;
1479;SDS011;732;51.698;4.886;2024-01-27T07:00:09;42.60;;;21.23;;
1479;SDS011;732;51.698;4.886;2024-01-27T07:02:42;52.83;;;22.80;;
1479;SDS011;732;51.698;4.886;2024-01-27T07:05:10;49.57;;;22.20;;
1479;SDS011;732;51.698;4.886;2024-01-27T07:07:41;46.50;;;21.80;;
1479;SDS011;732;51.698;4.886;2024-01-27T07:10:10;49.83;;;21.93;;
1479;SDS011;732;51.698;4.886;2024-01-27T07:12:39;49.43;;;22.27;;
1479;SDS011;732;51.698;4.886;2024-01-27T07:15:09;53.20;;;23.63;;
1479;SDS011;732;51.698;4.886;2024-01-27T07:17:38;53.10;;;23.33;;
1479;SDS011;732;51.698;4.886;2024-01-27T07:20:07;48.20;;;22.60;;
1479;SDS011;732;51.698;4.886;2024-01-27T07:22:37;51.37;;;23.17;;
1479;SDS011;732;51.698;4.886;2024-01-27T07:25:05;44.87;;;21.67;;
1479;SDS011;732;51.698;4.886;2024-01-27T07:27:36;55.17;;;24.50;;
1479;SDS011;732;51.698;4.886;2024-01-27T07:30:09;51.40;;;24.60;;
1479;SDS011;732;51.698;4.886;2024-01-27T07:32:38;47.67;;;22.67;;
1479;SDS011;732;51.698;4.886;2024-01-27T07:35:08;56.90;;;24.60;;
1479;SDS011;732;51.698;4.886;2024-01-27T07:37:37;49.70;;;23.13;;
1479;SDS011;732;51.698;4.886;2024-01-27T07:40:07;52.60;;;24.37;;
1479;SDS011;732;51.698;4.886;2024-01-27T07:42:37;51.40;;;24.07;;
1479;SDS011;732;51.698;4.886;2024-01-27T07:45:06;52.30;;;22.77;;
1479;SDS011;732;51.698;4.886;2024-01-27T07:47:36;50.83;;;23.13;;
1479;SDS011;732;51.698;4.886;2024-01-27T07:50:06;49.00;;;23.70;;
1479;SDS011;732;51.698;4.886;2024-01-27T07:52:36;54.40;;;24.10;;
1479;SDS011;732;51.698;4.886;2024-01-27T07:55:04;59.20;;;25.30;;
1479;SDS011;732;51.698;4.886;2024-01-27T07:57:33;56.93;;;22.67;;
1479;SDS011;732;51.698;4.886;2024-01-27T08:00:02;47.33;;;22.60;;
1479;SDS011;732;51.698;4.886;2024-01-27T08:02:34;50.77;;;22.20;;
1479;SDS011;732;51.698;4.886;2024-01-27T08:05:02;39.53;;;22.53;;
1479;SDS011;732;51.698;4.886;2024-01-27T08:07:32;52.50;;;24.30;;
1479;SDS011;732;51.698;4.886;2024-01-27T08:10:00;47.97;;;22.87;;
1479;SDS011;732;51.698;4.886;2024-01-27T08:12:31;55.33;;;23.90;;
1479;SDS011;732;51.698;4.886;2024-01-27T08:14:59;60.83;;;23.10;;
1479;SDS011;732;51.698;4.886;2024-01-27T08:17:29;47.43;;;23.03;;
1479;SDS011;732;51.698;4.886;2024-01-27T08:19:59;47.23;;;22.90;;
1479;SDS011;732;51.698;4.886;2024-01-27T08:22:28;54.50;;;25.20;;
1479;SDS011;732;51.698;4.886;2024-01-27T08:24:57;49.20;;;24.57;;
1479;SDS011;732;51.698;4.886;2024-01-27T08:27:25;53.27;;;25.43;;
1479;SDS011;732;51.698;4.886;2024-01-27T08:29:54;46.40;;;24.70;;
1479;SDS011;732;51.698;4.886;2024-01-27T08:32:24;46.77;;;24.27;;
1479;SDS011;732;51.698;4.886;2024-01-27T08:34:52;48.70;;;24.87;;
1479;SDS011;732;51.698;4.886;2024-01-27T08:37:22;57.23;;;25.97;;
1479;SDS011;732;51.698;4.886;2024-01-27T08:39:51;53.90;;;25.53;;
1479;SDS011;732;51.698;4.886;2024-01-27T08:42:19;45.77;;;24.90;;
1479;SDS011;732;51.698;4.886;2024-01-27T08:44:48;48.63;;;26.13;;
1479;SDS011;732;51.698;4.886;2024-01-27T08:47:16;49.77;;;27.00;;
1479;SDS011;732;51.698;4.886;2024-01-27T08:49:45;53.70;;;26.70;;
1479;SDS011;732;51.698;4.886;2024-01-27T08:52:13;47.87;;;25.27;;
1479;SDS011;732;51.698;4.886;2024-01-27T08:54:43;44.23;;;24.87;;
1479;SDS011;732;51.698;4.886;2024-01-27T08:57:12;51.20;;;24.80;;
1479;SDS011;732;51.698;4.886;2024-01-27T08:59:40;40.20;;;23.37;;
1479;SDS011;732;51.698;4.886;2024-01-27T09:02:09;46.67;;;23.63;;
1479;SDS011;732;51.698;4.886;2024-01-27T09:04:37;53.77;;;24.20;;
1479;SDS011;732;51.698;4.886;2024-01-27T09:07:06;46.50;;;23.50;;
1479;SDS011;732;51.698;4.886;2024-01-27T09:09:34;47.13;;;24.43;;
1479;SDS011;732;51.698;4.886;2024-01-27T09:12:06;43.27;;;23.87;;
1479;SDS011;732;51.698;4.886;2024-01-27T09:14:35;47.90;;;24.23;;
1479;SDS011;732;51.698;4.886;2024-01-27T09:17:03;50.40;;;23.83;;
1479;SDS011;732;51.698;4.886;2024-01-27T09:19:32;45.67;;;22.90;;
1479;SDS011;732;51.698;4.886;2024-01-27T09:22:00;41.83;;;22.20;;
1479;SDS011;732;51.698;4.886;2024-01-27T09:24:29;51.23;;;23.90;;
1479;SDS011;732;51.698;4.886;2024-01-27T09:26:58;51.20;;;22.43;;
1479;SDS011;732;51.698;4.886;2024-01-27T09:29:28;37.17;;;21.20;;
1479;SDS011;732;51.698;4.886;2024-01-27T09:31:57;46.37;;;21.83;;
1479;SDS011;732;51.698;4.886;2024-01-27T09:34:25;40.33;;;20.33;;
1479;SDS011;732;51.698;4.886;2024-01-27T09:36:55;34.60;;;19.93;;
1479;SDS011;732;51.698;4.886;2024-01-27T09:39:23;40.43;;;20.70;;
1479;SDS011;732;51.698;4.886;2024-01-27T09:41:52;36.93;;;20.50;;
1479;SDS011;732;51.698;4.886;2024-01-27T09:44:22;36.87;;;18.80;;
1479;SDS011;732;51.698;4.886;2024-01-27T09:46:54;40.70;;;20.17;;
1479;SDS011;732;51.698;4.886;2024-01-27T09:49:23;34.57;;;18.97;;
1479;SDS011;732;51.698;4.886;2024-01-27T09:51:54;41.07;;;18.43;;
1479;SDS011;732;51.698;4.886;2024-01-27T09:54:23;31.23;;;17.63;;
1479;SDS011;732;51.698;4.886;2024-01-27T09:56:52;34.03;;;17.20;;
1479;SDS011;732;51.698;4.886;2024-01-27T09:59:22;31.27;;;17.33;;
1479;SDS011;732;51.698;4.886;2024-01-27T10:01:51;40.70;;;16.60;;
1479;SDS011;732;51.698;4.886;2024-01-27T10:04:21;33.17;;;14.90;;
1479;SDS011;732;51.698;4.886;2024-01-27T10:06:52;33.13;;;15.10;;
1479;SDS011;732;51.698;4.886;2024-01-27T10:09:22;28.60;;;14.30;;
1479;SDS011;732;51.698;4.886;2024-01-27T10:11:50;27.43;;;14.80;;
1479;SDS011;732;51.698;4.886;2024-01-27T10:14:21;32.00;;;15.00;;
1479;SDS011;732;51.698;4.886;2024-01-27T10:16:50;37.10;;;13.77;;
1479;SDS011;732;51.698;4.886;2024-01-27T10:19:18;24.33;;;12.87;;
1479;SDS011;732;51.698;4.886;2024-01-27T10:21:59;27.47;;;14.97;;
1479;SDS011;732;51.698;4.886;2024-01-27T10:24:28;28.23;;;13.93;;
1479;SDS011;732;51.698;4.886;2024-01-27T10:26:59;26.67;;;12.87;;
1479;SDS011;732;51.698;4.886;2024-01-27T10:29:29;32.77;;;14.33;;
1479;SDS011;732;51.698;4.886;2024-01-27T10:32:06;29.30;;;13.63;;
1479;SDS011;732;51.698;4.886;2024-01-27T10:34:38;29.57;;;14.53;;
1479;SDS011;732;51.698;4.886;2024-01-27T10:37:09;25.80;;;14.77;;
1479;SDS011;732;51.698;4.886;2024-01-27T10:39:40;31.93;;;13.70;;
1479;SDS011;732;51.698;4.886;2024-01-27T10:42:09;29.30;;;13.87;;
1479;SDS011;732;51.698;4.886;2024-01-27T10:44:38;28.10;;;13.37;;
1479;SDS011;732;51.698;4.886;2024-01-27T10:47:08;25.83;;;14.43;;
1479;SDS011;732;51.698;4.886;2024-01-27T10:49:44;28.40;;;12.90;;
1479;SDS011;732;51.698;4.886;2024-01-27T10:52:16;27.60;;;12.67;;
1479;SDS011;732;51.698;4.886;2024-01-27T10:54:48;22.73;;;11.37;;
1479;SDS011;732;51.698;4.886;2024-01-27T10:57:19;25.37;;;11.40;;
1479;SDS011;732;51.698;4.886;2024-01-27T10:59:48;26.90;;;11.50;;
1479;SDS011;732;51.698;4.886;2024-01-27T11:02:18;27.63;;;11.40;;
1479;SDS011;732;51.698;4.886;2024-01-27T11:04:47;24.93;;;11.67;;
1479;SDS011;732;51.698;4.886;2024-01-27T11:07:19;18.83;;;10.17;;
1479;SDS011;732;51.698;4.886;2024-01-27T11:09:49;35.27;;;10.10;;
1479;SDS011;732;51.698;4.886;2024-01-27T11:12:19;25.00;;;9.30;;
1479;SDS011;732;51.698;4.886;2024-01-27T11:14:51;19.53;;;9.40;;
1479;SDS011;732;51.698;4.886;2024-01-27T11:17:20;25.40;;;9.60;;
1479;SDS011;732;51.698;4.886;2024-01-27T11:19:49;27.90;;;8.60;;
1479;SDS011;732;51.698;4.886;2024-01-27T11:22:26;21.03;;;9.67;;
1479;SDS011;732;51.698;4.886;2024-01-27T11:25:05;26.07;;;9.10;;
1479;SDS011;732;51.698;4.886;2024-01-27T11:27:35;26.40;;;10.20;;
1479;SDS011;732;51.698;4.886;2024-01-27T11:30:05;24.37;;;11.23;;
1479;SDS011;732;51.698;4.886;2024-01-27T11:32:53;26.23;;;10.73;;
1479;SDS011;732;51.698;4.886;2024-01-27T11:35:23;14.47;;;9.07;;
1479;SDS011;732;51.698;4.886;2024-01-27T11:37:53;22.63;;;8.73;;
1479;SDS011;732;51.698;4.886;2024-01-27T11:40:22;21.97;;;8.87;;
1479;SDS011;732;51.698;4.886;2024-01-27T11:42:54;23.67;;;9.80;;
1479;SDS011;732;51.698;4.886;2024-01-27T11:45:24;24.00;;;9.33;;
1479;SDS011;732;51.698;4.886;2024-01-27T11:47:54;21.23;;;8.83;;
1479;SDS011;732;51.698;4.886;2024-01-27T11:50:23;19.20;;;8.50;;
1479;SDS011;732;51.698;4.886;2024-01-27T11:52:53;23.83;;;9.50;;
1479;SDS011;732;51.698;4.886;2024-01-27T11:55:23;21.47;;;8.83;;
1479;SDS011;732;51.698;4.886;2024-01-27T11:57:52;23.27;;;8.60;;
1479;SDS011;732;51.698;4.886;2024-01-27T12:00:20;21.47;;;8.97;;
1479;SDS011;732;51.698;4.886;2024-01-27T12:02:50;20.77;;;8.23;;
1479;SDS011;732;51.698;4.886;2024-01-27T12:05:19;24.53;;;9.73;;
1479;SDS011;732;51.698;4.886;2024-01-27T12:07:48;16.93;;;9.10;;
1479;SDS011;732;51.698;4.886;2024-01-27T12:10:19;24.50;;;8.63;;
1479;SDS011;732;51.698;4.886;2024-01-27T12:12:48;19.90;;;8.90;;
1479;SDS011;732;51.698;4.886;2024-01-27T12:15:16;17.77;;;8.43;;
1479;SDS011;732;51.698;4.886;2024-01-27T12:17:49;20.43;;;8.60;;
1479;SDS011;732;51.698;4.886;2024-01-27T12:20:18;20.00;;;7.87;;
1479;SDS011;732;51.698;4.886;2024-01-27T12:22:49;17.97;;;7.90;;
1479;SDS011;732;51.698;4.886;2024-01-27T12:25:31;19.67;;;9.37;;
1479;SDS011;732;51.698;4.886;2024-01-27T12:28:01;18.10;;;8.20;;
1479;SDS011;732;51.698;4.886;2024-01-27T12:30:31;16.20;;;7.17;;
1479;SDS011;732;51.698;4.886;2024-01-27T12:33:00;12.07;;;6.90;;
1479;SDS011;732;51.698;4.886;2024-01-27T12:35:29;22.27;;;8.80;;
1479;SDS011;732;51.698;4.886;2024-01-27T12:37:59;26.93;;;7.90;;
1479;SDS011;732;51.698;4.886;2024-01-27T12:40:28;22.33;;;6.97;;
1479;SDS011;732;51.698;4.886;2024-01-27T12:42:59;22.60;;;9.50;;
1479;SDS011;732;51.698;4.886;2024-01-27T12:45:28;21.33;;;7.60;;
1479;SDS011;732;51.698;4.886;2024-01-27T12:47:56;18.57;;;7.20;;
1479;SDS011;732;51.698;4.886;2024-01-27T12:50:26;24.77;;;8.33;;
1479;SDS011;732;51.698;4.886;2024-01-27T12:52:55;18.50;;;6.80;;
1479;SDS011;732;51.698;4.886;2024-01-27T12:55:23;18.57;;;6.27;;
1479;SDS011;732;51.698;4.886;2024-01-27T12:57:53;23.47;;;6.50;;
1479;SDS011;732;51.698;4.886;2024-01-27T13:00:24;19.83;;;6.50;;
1479;SDS011;732;51.698;4.886;2024-01-27T13:02:52;24.53;;;8.00;;
1479;SDS011;732;51.698;4.886;2024-01-27T13:05:21;21.57;;;7.33;;
1479;SDS011;732;51.698;4.886;2024-01-27T13:07:50;24.17;;;7.30;;
1479;SDS011;732;51.698;4.886;2024-01-27T13:10:18;22.57;;;7.87;;
1479;SDS011;732;51.698;4.886;2024-01-27T13:12:47;21.33;;;7.53;;
1479;SDS011;732;51.698;4.886;2024-01-27T13:15:17;21.40;;;8.10;;
1479;SDS011;732;51.698;4.886;2024-01-27T13:17:46;23.60;;;7.60;;
1479;SDS011;732;51.698;4.886;2024-01-27T13:20:14;31.13;;;8.00;;
1479;SDS011;732;51.698;4.886;2024-01-27T13:22:46;26.00;;;8.27;;
1479;SDS011;732;51.698;4.886;2024-01-27T13:25:15;18.80;;;6.83;;
1479;SDS011;732;51.698;4.886;2024-01-27T13:27:44;20.17;;;7.27;;
1479;SDS011;732;51.698;4.886;2024-01-27T13:30:13;23.10;;;8.20;;
1479;SDS011;732;51.698;4.886;2024-01-27T13:32:45;20.77;;;8.00;;
1479;SDS011;732;51.698;4.886;2024-01-27T13:35:14;20.70;;;7.57;;
1479;SDS011;732;51.698;4.886;2024-01-27T13:37:43;29.57;;;7.63;;
1479;SDS011;732;51.698;4.886;2024-01-27T13:40:12;19.80;;;7.40;;
1479;SDS011;732;51.698;4.886;2024-01-27T13:42:41;21.83;;;7.13;;
1479;SDS011;732;51.698;4.886;2024-01-27T13:45:09;22.97;;;7.17;;
1479;SDS011;732;51.698;4.886;2024-01-27T13:47:38;29.13;;;8.03;;
1479;SDS011;732;51.698;4.886;2024-01-27T13:50:09;27.70;;;8.60;;
1479;SDS011;732;51.698;4.886;2024-01-27T13:52:38;26.00;;;7.57;;
1479;SDS011;732;51.698;4.886;2024-01-27T13:55:07;20.03;;;7.47;;
1479;SDS011;732;51.698;4.886;2024-01-27T13:57:38;18.00;;;6.50;;
1479;SDS011;732;51.698;4.886;2024-01-27T14:00:07;21.93;;;7.53;;
1479;SDS011;732;51.698;4.886;2024-01-27T14:02:37;21.77;;;7.50;;
1479;SDS011;732;51.698;4.886;2024-01-27T14:05:06;25.37;;;7.00;;
1479;SDS011;732;51.698;4.886;2024-01-27T14:07:36;15.40;;;6.50;;
1479;SDS011;732;51.698;4.886;2024-01-27T14:10:05;18.07;;;7.90;;
1479;SDS011;732;51.698;4.886;2024-01-27T14:12:35;16.63;;;6.83;;
1479;SDS011;732;51.698;4.886;2024-01-27T14:15:04;14.93;;;6.80;;
1479;SDS011;732;51.698;4.886;2024-01-27T14:17:34;18.43;;;7.40;;
1479;SDS011;732;51.698;4.886;2024-01-27T14:20:04;19.47;;;6.40;;
1479;SDS011;732;51.698;4.886;2024-01-27T14:22:37;21.73;;;7.20;;
1479;SDS011;732;51.698;4.886;2024-01-27T14:25:06;19.33;;;6.77;;
1479;SDS011;732;51.698;4.886;2024-01-27T14:27:36;18.27;;;6.40;;
1479;SDS011;732;51.698;4.886;2024-01-27T14:30:05;20.97;;;6.47;;
1479;SDS011;732;51.698;4.886;2024-01-27T14:32:37;21.80;;;6.60;;
1479;SDS011;732;51.698;4.886;2024-01-27T14:35:06;22.77;;;7.30;;
1479;SDS011;732;51.698;4.886;2024-01-27T14:37:35;25.53;;;7.37;;
1479;SDS011;732;51.698;4.886;2024-01-27T14:41:48;26.77;;;7.07;;
1479;SDS011;732;51.698;4.886;2024-01-27T14:44:17;18.50;;;7.40;;
1479;SDS011;732;51.698;4.886;2024-01-27T14:46:46;23.87;;;6.40;;
1479;SDS011;732;51.698;4.886;2024-01-27T14:49:15;25.13;;;6.97;;
1479;SDS011;732;51.698;4.886;2024-01-27T14:51:44;23.83;;;8.10;;
1479;SDS011;732;51.698;4.886;2024-01-27T14:54:12;26.23;;;7.00;;
1479;SDS011;732;51.698;4.886;2024-01-27T14:56:42;23.83;;;6.93;;
1479;SDS011;732;51.698;4.886;2024-01-27T14:59:12;21.80;;;5.90;;
1479;SDS011;732;51.698;4.886;2024-01-27T15:01:41;21.97;;;6.80;;
1479;SDS011;732;51.698;4.886;2024-01-27T15:04:09;17.20;;;5.87;;
1479;SDS011;732;51.698;4.886;2024-01-27T15:06:38;16.87;;;5.97;;
1479;SDS011;732;51.698;4.886;2024-01-27T15:09:07;20.63;;;6.70;;
1479;SDS011;732;51.698;4.886;2024-01-27T15:11:35;16.50;;;6.37;;
1479;SDS011;732;51.698;4.886;2024-01-27T15:14:04;22.53;;;7.23;;
1479;SDS011;732;51.698;4.886;2024-01-27T15:16:34;19.07;;;6.63;;
1479;SDS011;732;51.698;4.886;2024-01-27T15:19:02;19.77;;;6.87;;
1479;SDS011;732;51.698;4.886;2024-01-27T15:21:31;31.00;;;8.50;;